^^
Your Local Weather - Clay, NY Station Historical Data
Daily Summary for January 26, 2017 Units:  Metric    English   Both
« Previous Day
Next Day »
Daily Weekly Monthly Yearly Custom
  High: Low: Average:
Temperature: 6.9 °C -0.3 °C 3.5 °C
Dew Point: 4.5 °C -1.2 °C 0.7 °C
Humidity: 95% 63% 83%
Wind Speed: 12.9km/h 0km/h 6km/h
Wind Gust: 20.9km/h - -
Wind- - WSW
Pressure: 998.9 hPa 992.4 hPa -
Precipitation: 3.05 mm    
Historical Graphs
 
 
Tabular Data for January 26, 2017
Time Temperature Dew Point Pressure Wind Wind Speed Wind Gust Humidity Rainfall Rate (Hourly) solar
00:04 0.5 °C -0.5 °C 996.2 hPa Calm   1.6 km/h 93% 0 mm 0 W/m2
00:10 0.6 °C -0.4 °C 995.8 hPa ENE 1.6 km/h 1.6 km/h 93% 0 mm 0 W/m2
00:16 0.6 °C -0.4 °C 995.8 hPa ENE 1.6 km/h 4.8 km/h 93% 0 mm 0 W/m2
00:22 0.5 °C -0.5 °C 995.8 hPa ENE 1.6 km/h 1.6 km/h 93% 0 mm 0 W/m2
00:28 0.5 °C -0.5 °C 995.8 hPa Calm   1.6 km/h 93% 0 mm 0 W/m2
00:33 0.4 °C -0.6 °C 995.5 hPa Calm     93% 0 mm 0 W/m2
00:40 0.4 °C -0.6 °C 995.5 hPa Calm     93% 0 mm 0 W/m2
00:46 0.4 °C -0.6 °C 995.5 hPa Calm     93% 0 mm 0 W/m2
00:52 0.4 °C -0.4 °C 995.1 hPa Calm     94% 0 mm 0 W/m2
00:58 0.3 °C -0.5 °C 995.1 hPa Calm   1.6 km/h 94% 0 mm 0 W/m2
01:04 0.2 °C -0.6 °C 995.1 hPa Calm     94% 0 mm 0 W/m2
01:09 0.1 °C -0.7 °C 995.1 hPa Calm     94% 0 mm 0 W/m2
01:16 0.1 °C -0.8 °C 995.1 hPa Calm     94% 0 mm 0 W/m2
01:22 0 °C -0.8 °C 994.8 hPa Calm     94% 0 mm 0 W/m2
01:28 0 °C -0.8 °C 994.8 hPa Calm     94% 0 mm 0 W/m2
01:34 -0.1 °C -0.9 °C 994.8 hPa Calm     94% 0 mm 0 W/m2
01:39 -0.1 °C -0.9 °C 994.8 hPa Calm     94% 0 mm 0 W/m2
01:46 -0.2 °C -1 °C 994.8 hPa Calm     94% 0 mm 0 W/m2
01:52 -0.3 °C -1.1 °C 994.8 hPa Calm     94% 0 mm 0 W/m2
01:58 -0.2 °C -1.1 °C 994.8 hPa Calm     94% 0 mm 0 W/m2
02:04 -0.2 °C -1 °C 994.8 hPa Calm     94% 0 mm 0 W/m2
02:10 -0.1 °C -0.9 °C 994.5 hPa Calm     94% 0 mm 0 W/m2
02:15 0 °C -0.8 °C 994.8 hPa Calm     94% 0 mm 0 W/m2
02:22 0.2 °C -0.7 °C 994.5 hPa Calm     94% 0 mm 0 W/m2
02:28 0.6 °C -0.3 °C 994.5 hPa Calm     94% 0 mm 0 W/m2
02:34 2.2 °C 1.3 °C 994.5 hPa SSE 1.6 km/h 3.2 km/h 94% 0 mm 0 W/m2
02:40 3.6 °C 2.7 °C 994.5 hPa SSW 1.6 km/h 3.2 km/h 94% 0 mm 0 W/m2
02:45 4.3 °C 3.6 °C 993.8 hPa SSW 1.6 km/h 3.2 km/h 95% 0 mm 0 W/m2
02:52 4.9 °C 4.2 °C 993.8 hPa South 3.2 km/h 3.2 km/h 95% 0 mm 0 W/m2
02:58 5.2 °C 4.3 °C 993.8 hPa SW 1.6 km/h 3.2 km/h 94% 0 mm 0 W/m2
03:04 5.6 °C 4.5 °C 993.8 hPa SW 1.6 km/h 3.2 km/h 93% 0 mm 0 W/m2
03:09 5.8 °C 4.5 °C 993.8 hPa South 1.6 km/h 1.6 km/h 91% 0 mm 0 W/m2
03:16 6 °C 4.3 °C 993.8 hPa SSW 1.6 km/h 3.2 km/h 89% 0 mm 0 W/m2
03:22 6.1 °C 4.3 °C 993.8 hPa SSW 3.2 km/h 4.8 km/h 88% 0 mm 0 W/m2
03:28 6.2 °C 4.2 °C 993.8 hPa SSW 3.2 km/h 4.8 km/h 87% 0 mm 0 W/m2
03:34 6.3 °C 4.3 °C 993.8 hPa SSW 1.6 km/h 3.2 km/h 87% 0 mm 0 W/m2
03:40 6.2 °C 4.2 °C 993.8 hPa SW 1.6 km/h 1.6 km/h 87% 0 mm 0 W/m2
03:45 6.3 °C 4.3 °C 993.8 hPa WSW 1.6 km/h 6.4 km/h 87% 0 mm 0 W/m2
03:52 6.4 °C 4.2 °C 993.8 hPa West 3.2 km/h 3.2 km/h 86% 0 mm 0 W/m2
03:58 6.6 °C 4.3 °C 993.8 hPa West 3.2 km/h 3.2 km/h 85% 0 mm 0 W/m2
04:03 6.7 °C 4.4 °C 993.8 hPa West 1.6 km/h 4.8 km/h 85% 0 mm 0 W/m2
04:10 6.8 °C 4.3 °C 993.8 hPa WSW 3.2 km/h 3.2 km/h 84% 0 mm 0 W/m2
04:16 6.9 °C 4.4 °C 993.8 hPa WNW 3.2 km/h 9.7 km/h 84% 0 mm 0 W/m2
04:22 6.9 °C 4.4 °C 993.8 hPa West 3.2 km/h 4.8 km/h 84% 0 mm 0 W/m2
04:28 6.9 °C 4.3 °C 993.5 hPa WNW 4.8 km/h 9.7 km/h 83% 0 mm 0 W/m2
04:34 6.9 °C 4.1 °C 993.5 hPa West 6.4 km/h 8 km/h 82% 0 mm 0 W/m2
04:40 6.9 °C 3.7 °C 993.1 hPa WSW 6.4 km/h 6.4 km/h 80% 0 mm 0 W/m2
04:46 6.8 °C 3.6 °C 993.5 hPa SW 6.4 km/h 9.7 km/h 80% 0 mm 0 W/m2
04:52 6.7 °C 3.5 °C 993.1 hPa WSW 6.4 km/h 14.5 km/h 80% 0 mm 0 W/m2
04:58 6.6 °C 3.5 °C 993.5 hPa WSW 4.8 km/h 14.5 km/h 81% 0 mm 0 W/m2
05:04 6.4 °C 3.4 °C 993.5 hPa WSW 3.2 km/h 4.8 km/h 81% 0 mm 0 W/m2
05:09 6.3 °C 3.4 °C 993.8 hPa SSE 1.6 km/h 3.2 km/h 82% 0 mm 0 W/m2
05:15 6.1 °C 3.3 °C 993.8 hPa WSW 1.6 km/h 4.8 km/h 82% 0 mm 0 W/m2
05:22 6 °C 3.2 °C 993.8 hPa SW 3.2 km/h 3.2 km/h 82% 0 mm 0 W/m2
05:28 6 °C 3 °C 993.8 hPa SW 3.2 km/h 6.4 km/h 81% 0 mm 0 W/m2
05:34 6.1 °C 3.1 °C 993.8 hPa West 4.8 km/h 12.9 km/h 81% 0 mm 0 W/m2
05:39 6.1 °C 2.7 °C 993.8 hPa WSW 3.2 km/h 3.2 km/h 79% 0 mm 0 W/m2
05:45 6 °C 2.6 °C 993.8 hPa West 3.2 km/h 8 km/h 79% 0 mm 0 W/m2
05:52 5.9 °C 2.6 °C 993.8 hPa NW 4.8 km/h 11.3 km/h 79% 0 mm 0 W/m2
05:58 6 °C 2.3 °C 993.8 hPa WSW 6.4 km/h 11.3 km/h 77% 0 mm 0 W/m2
06:03 5.9 °C 2.4 °C 994.1 hPa South 4.8 km/h 8 km/h 78% 0 mm 0 W/m2
06:10 5.9 °C 2.3 °C 994.1 hPa WSW 3.2 km/h 3.2 km/h 78% 0 mm 0 W/m2
06:16 5.8 °C 2.1 °C 993.8 hPa West 4.8 km/h 11.3 km/h 77% 0 mm 0 W/m2
06:22 5.8 °C 2.1 °C 994.1 hPa WSW 6.4 km/h 6.4 km/h 77% 0 mm 0 W/m2
06:28 5.8 °C 2.1 °C 993.8 hPa WSW 4.8 km/h 6.4 km/h 77% 0 mm 0 W/m2
06:34 5.8 °C 2.1 °C 993.8 hPa WNW 4.8 km/h 12.9 km/h 77% 0 mm 0 W/m2
06:40 5.8 °C 1.9 °C 994.1 hPa NW 6.4 km/h 6.4 km/h 76% 0 mm 0 W/m2
06:46 5.8 °C 1.7 °C 994.1 hPa West 9.7 km/h 17.7 km/h 75% 0 mm 0 W/m2
06:52 5.8 °C 1.9 °C 994.1 hPa WSW 8 km/h 20.9 km/h 76% 0 mm 0 W/m2
06:58 5.7 °C 1.8 °C 994.1 hPa SSW 8 km/h 20.9 km/h 76% 0 mm 0 W/m2
07:04 5.7 °C 1.8 °C 994.1 hPa West 8 km/h 12.9 km/h 76% 0 mm 0 W/m2
07:10 5.7 °C 1.6 °C 994.1 hPa West 8 km/h 8 km/h 75% 0 mm 0 W/m2
07:15 5.6 °C 1.5 °C 993.8 hPa West 8 km/h 8 km/h 75% 0 mm 0 W/m2
07:22 5.5 °C 1.6 °C 993.8 hPa SW 4.8 km/h 4.8 km/h 76% 0 mm 0 W/m2
07:28 5.4 °C 1.5 °C 993.8 hPa WSW 3.2 km/h 6.4 km/h 76% 0 mm 0 W/m2
07:34 5.3 °C 1.4 °C 994.1 hPa SW 4.8 km/h 8 km/h 76% 0 mm 0 W/m2
07:40 5.2 °C 1.3 °C 993.8 hPa West 3.2 km/h 6.4 km/h 76% 0 mm 0 W/m2
07:46 5.3 °C 1.4 °C 994.1 hPa WSW 4.8 km/h 8 km/h 76% 0 mm 5 W/m2
07:52 5.2 °C 1.2 °C 993.8 hPa WSW 6.4 km/h 9.7 km/h 75% 0 mm 7 W/m2
07:58 5.3 °C 1.3 °C 993.8 hPa WSW 6.4 km/h 9.7 km/h 75% 0 mm 9 W/m2
08:04 5.3 °C 1.3 °C 993.8 hPa West 8 km/h 9.7 km/h 75% 0 mm 30 W/m2
08:10 5.4 °C 1.1 °C 993.8 hPa WSW 8 km/h 8 km/h 74% 0 mm 58 W/m2
08:15 5.3 °C 1.1 °C 993.8 hPa West 6.4 km/h 8 km/h 74% 0 mm 67 W/m2
08:22 5.3 °C 1.1 °C 993.8 hPa West 6.4 km/h 6.4 km/h 74% 0 mm 63 W/m2
08:28 5.3 °C 0.9 °C 993.8 hPa West 8 km/h 20.9 km/h 73% 0 mm 79 W/m2
08:34 5.4 °C 0.9 °C 993.8 hPa West 9.7 km/h 9.7 km/h 73% 0 mm 84 W/m2
08:40 5.4 °C 0.9 °C 993.8 hPa NW 8 km/h 8 km/h 73% 0 mm 88 W/m2
08:44 5.4 °C 0.9 °C 993.8 hPa West 8 km/h 8 km/h 73% 0 mm 81 W/m2
08:49 5.4 °C 0.9 °C 993.8 hPa SW 6.4 km/h 14.5 km/h 73% 0 mm 93 W/m2
08:56 5.4 °C 0.8 °C 993.8 hPa West 9.7 km/h 14.5 km/h 72% 0 mm 90 W/m2
09:02 5.4 °C 0.6 °C 993.8 hPa West 9.7 km/h 9.7 km/h 71% 0 mm 97 W/m2
09:08 5.4 °C 0.6 °C 993.5 hPa West 8 km/h 17.7 km/h 71% 0 mm 84 W/m2
09:14 5.5 °C 0.7 °C 993.5 hPa WSW 8 km/h 9.7 km/h 71% 0 mm 149 W/m2
09:20 5.7 °C 0.8 °C 993.8 hPa SW 6.4 km/h 12.9 km/h 71% 0 mm 134 W/m2
09:26 5.7 °C 0.2 °C 993.5 hPa West 8 km/h 17.7 km/h 68% 0 mm 107 W/m2
09:32 6.2 °C 0.9 °C 993.5 hPa WSW 8 km/h 9.7 km/h 69% 0 mm 306 W/m2
09:38 6.3 °C 0.4 °C 993.5 hPa West 8 km/h 16.1 km/h 66% 0 mm 334 W/m2
09:44 6.4 °C 0.6 °C 993.1 hPa WNW 9.7 km/h 11.3 km/h 66% 0 mm 348 W/m2
09:50 6.4 °C 0.6 °C 993.1 hPa SSW 9.7 km/h 11.3 km/h 66% 0 mm 373 W/m2
09:56 6.4 °C 0.3 °C 993.1 hPa WNW 9.7 km/h 17.7 km/h 65% 0 mm 383 W/m2
10:02 6.1 °C -0.2 °C 993.5 hPa WNW 11.3 km/h 12.9 km/h 64% 0 mm 155 W/m2
10:08 5.9 °C -0.2 °C 993.5 hPa WNW 11.3 km/h 12.9 km/h 65% 0 mm 183 W/m2
10:13 5.9 °C -0.4 °C 993.5 hPa WSW 11.3 km/h 11.3 km/h 64% 0 mm 172 W/m2
10:19 5.7 °C -0.6 °C 993.8 hPa WSW 11.3 km/h 11.3 km/h 64% 0 mm 171 W/m2
10:25 5.7 °C -0.6 °C 993.5 hPa WNW 11.3 km/h 19.3 km/h 64% 0 mm 135 W/m2
10:32 5.6 °C -0.7 °C 993.8 hPa WNW 11.3 km/h 11.3 km/h 64% 0 mm 109 W/m2
10:38 5.6 °C -0.7 °C 993.5 hPa West 9.7 km/h 14.5 km/h 64% 0 mm 107 W/m2
10:44 5.4 °C -0.6 °C 993.5 hPa WNW 11.3 km/h 16.1 km/h 65% 0 mm 118 W/m2
10:49 5.4 °C -0.6 °C 993.8 hPa WNW 9.7 km/h 12.9 km/h 65% 0 mm 120 W/m2
10:55 5.4 °C -0.8 °C 993.5 hPa WSW 9.7 km/h 19.3 km/h 64% 0 mm 76 W/m2
11:02 5.3 °C -0.9 °C 993.5 hPa South 11.3 km/h 12.9 km/h 64% 0 mm 146 W/m2
11:08 5.4 °C -0.9 °C 993.1 hPa NW 11.3 km/h 14.5 km/h 64% 0 mm 155 W/m2
11:14 5.3 °C -1.2 °C 993.1 hPa SW 11.3 km/h 16.1 km/h 63% 0 mm 146 W/m2
11:20 5.4 °C -0.9 °C 993.1 hPa SW 12.9 km/h 12.9 km/h 64% 0 mm 132 W/m2
11:25 5.3 °C -0.9 °C 993.1 hPa WSW 9.7 km/h 12.9 km/h 64% 0 mm 179 W/m2
11:32 5.3 °C -0.9 °C 992.8 hPa West 11.3 km/h 11.3 km/h 64% 0 mm 197 W/m2
11:38 5.4 °C -1.1 °C 992.8 hPa West 11.3 km/h 14.5 km/h 63% 0 mm 171 W/m2
11:44 5.4 °C -1.1 °C 992.8 hPa WSW 9.7 km/h 19.3 km/h 63% 0 mm 155 W/m2
11:49 5.3 °C -0.9 °C 992.8 hPa West 9.7 km/h 9.7 km/h 64% 0 mm 202 W/m2
11:55 5.4 °C -0.9 °C 992.8 hPa West 9.7 km/h 17.7 km/h 64% 0 mm 172 W/m2
12:02 5.3 °C -0.8 °C 992.8 hPa WSW 11.3 km/h 17.7 km/h 65% 0 mm 165 W/m2
12:08 5.1 °C -0.5 °C 992.8 hPa West 8 km/h 17.7 km/h 67% 0 mm 171 W/m2
12:13 5.1 °C -0.2 °C 992.8 hPa SW 6.4 km/h 20.9 km/h 69% 0 mm 149 W/m2
12:20 4.9 °C -0.1 °C 992.8 hPa WSW 8 km/h 20.9 km/h 70% 0 mm 195 W/m2
12:26 4.5 °C 0.1 °C 992.8 hPa West 11.3 km/h 20.9 km/h 73% 0 mm 151 W/m2
12:32 4.2 °C 0.1 °C 992.8 hPa West 11.3 km/h 17.7 km/h 75% 0 mm 93 W/m2
12:38 3.8 °C 0.2 °C 992.4 hPa WNW 11.3 km/h 17.7 km/h 77% 0 mm 84 W/m2
12:43 3.8 °C 0.3 °C 992.4 hPa West 8 km/h 16.1 km/h 78% 0 mm 86 W/m2
12:49 3.8 °C 0.1 °C 992.4 hPa West 8 km/h 11.3 km/h 77% 0 mm 93 W/m2
12:56 3.8 °C 0.1 °C 992.4 hPa West 8 km/h 11.3 km/h 77% 0 mm 95 W/m2
13:02 3.7 °C 0.2 °C 992.4 hPa WSW 8 km/h 11.3 km/h 78% 0 mm 84 W/m2
13:08 3.7 °C 0.2 °C 992.4 hPa West 8 km/h 11.3 km/h 78% 0 mm 63 W/m2
13:14 3.6 °C 0.3 °C 992.4 hPa NW 9.7 km/h 9.7 km/h 79% 0 mm 79 W/m2
13:19 3.6 °C 0.4 °C 992.4 hPa West 8 km/h 8 km/h 80% 0 mm 95 W/m2
13:25 3.4 °C 0.5 °C 992.4 hPa West 8 km/h 9.7 km/h 81% 0 mm 91 W/m2
13:32 3.4 °C 0.7 °C 992.4 hPa SSW 8 km/h 11.3 km/h 82% 0 mm 77 W/m2
13:38 3.3 °C 0.7 °C 992.4 hPa WNW 6.4 km/h 11.3 km/h 83% 0 mm 98 W/m2
13:44 3.2 °C 0.6 °C 992.4 hPa West 8 km/h 20.9 km/h 83% 0 mm 93 W/m2
13:50 3.2 °C 0.8 °C 992.4 hPa WNW 8 km/h 11.3 km/h 84% 0 mm 91 W/m2
13:55 3.2 °C 0.7 °C 992.4 hPa West 8 km/h 11.3 km/h 84% 0 mm 107 W/m2
14:02 3.2 °C 0.8 °C 992.8 hPa West 9.7 km/h 9.7 km/h 84% 0 mm 139 W/m2
14:08 3.3 °C 1.1 °C 992.4 hPa WSW 6.4 km/h 9.7 km/h 85% 0 mm 135 W/m2
14:14 3.4 °C 1.2 °C 992.4 hPa WSW 6.4 km/h 8 km/h 85% 0 mm 156 W/m2
14:20 3.6 °C 1 °C 992.8 hPa West 6.4 km/h 6.4 km/h 83% 0 mm 139 W/m2
14:26 3.8 °C 1 °C 992.8 hPa SW 8 km/h 17.7 km/h 82% 0 mm 134 W/m2
14:32 3.9 °C 0.9 °C 992.8 hPa West 9.7 km/h 14.5 km/h 81% 0 mm 127 W/m2
14:38 3.9 °C 0.8 °C 992.8 hPa West 9.7 km/h 17.7 km/h 80% 0 mm 69 W/m2
14:44 3.8 °C 0.8 °C 992.8 hPa West 9.7 km/h 11.3 km/h 81% 0 mm 49 W/m2
14:49 3.6 °C 0.8 °C 992.8 hPa WNW 8 km/h 8 km/h 82% 0 mm 47 W/m2
14:55 3.4 °C 0.7 °C 992.8 hPa SW 6.4 km/h 8 km/h 82% 0 mm 37 W/m2
15:02 3.4 °C 0.8 °C 992.8 hPa West 4.8 km/h 6.4 km/h 83% 0 mm 30 W/m2
15:08 3.4 °C 0.7 °C 993.1 hPa WSW 4.8 km/h 9.7 km/h 82% 0 mm 44 W/m2
15:14 3.6 °C 0.6 °C 993.1 hPa WNW 6.4 km/h 11.3 km/h 81% 0 mm 37 W/m2
15:20 3.6 °C 0.8 °C 993.1 hPa WSW 6.4 km/h 6.4 km/h 82% 0 mm 42 W/m2
15:26 3.6 °C 0.6 °C 993.1 hPa WNW 8 km/h 8 km/h 81% 0 mm 44 W/m2
15:32 3.5 °C 0.6 °C 993.1 hPa WSW 8 km/h 8 km/h 81% 0 mm 51 W/m2
15:38 3.4 °C 0.5 °C 993.1 hPa WSW 6.4 km/h 11.3 km/h 81% 0 mm 47 W/m2
15:43 3.4 °C 0.4 °C 993.1 hPa WSW 8 km/h 14.5 km/h 81% 0 mm 47 W/m2
15:50 3.3 °C 0.7 °C 993.1 hPa West 6.4 km/h 6.4 km/h 83% 0 mm 44 W/m2
15:56 3.3 °C 0.7 °C 993.1 hPa WNW 4.8 km/h 6.4 km/h 83% 0 mm 28 W/m2
16:02 3.2 °C 0.7 °C 993.5 hPa SW 4.8 km/h 6.4 km/h 84% 0 mm 25 W/m2
16:10 3 °C 0.7 °C 993.5 hPa West 8 km/h 8 km/h 85% 0 mm 26 W/m2
16:15 2.9 °C 0.6 °C 993.8 hPa SW 8 km/h 12.9 km/h 85% 0 mm 23 W/m2
16:22 2.8 °C 0.7 °C 993.8 hPa WNW 6.4 km/h 9.7 km/h 86% 0 mm 19 W/m2
16:33 2.2 °C 0.3 °C 994.1 hPa NW 6.4 km/h 8 km/h 87% 4.83 mm 5 W/m2
16:40 1.8 °C 0 °C 994.1 hPa WNW 8 km/h 9.7 km/h 88% 2.03 mm 5 W/m2
16:46 1.7 °C 0.1 °C 994.5 hPa WSW 4.8 km/h 9.7 km/h 89% 1.27 mm 5 W/m2
16:52 1.6 °C 0.2 °C 994.8 hPa WNW 4.8 km/h 4.8 km/h 90% 1.27 mm 0 W/m2
16:58 1.4 °C 0 °C 994.8 hPa WNW 6.4 km/h 6.4 km/h 90% 1.02 mm 0 W/m2
17:03 1.4 °C -0.1 °C 994.8 hPa WNW 6.4 km/h 12.9 km/h 90% 0 mm 0 W/m2
17:10 1.3 °C -0.1 °C 995.1 hPa WNW 6.4 km/h 6.4 km/h 90% 0 mm 0 W/m2
17:16 1.3 °C -0.1 °C 995.1 hPa WNW 4.8 km/h 6.4 km/h 91% 0 mm 0 W/m2
17:23 1.2 °C -0.1 °C 995.5 hPa NW 4.8 km/h 6.4 km/h 91% 0 mm 0 W/m2
17:28 1.2 °C -0.2 °C 995.5 hPa WSW 4.8 km/h 6.4 km/h 91% 0 mm 0 W/m2
17:33 1.2 °C -0.2 °C 995.5 hPa WNW 4.8 km/h 4.8 km/h 91% 0 mm 0 W/m2
17:40 1.2 °C -0.1 °C 995.5 hPa SW 4.8 km/h 4.8 km/h 91% 0 mm 0 W/m2
17:46 1.2 °C -0.1 °C 995.8 hPa WSW 4.8 km/h 8 km/h 91% 0 mm 0 W/m2
17:52 1.3 °C -0.1 °C 995.8 hPa WSW 4.8 km/h 4.8 km/h 91% 0 mm 0 W/m2
17:58 1.3 °C -0.1 °C 995.8 hPa WNW 4.8 km/h 6.4 km/h 91% 0 mm 0 W/m2
18:04 1.3 °C 0 °C 995.8 hPa WNW 4.8 km/h 11.3 km/h 91% 0 mm 0 W/m2
18:09 1.3 °C 0 °C 995.8 hPa West 4.8 km/h 4.8 km/h 91% 0 mm 0 W/m2
18:16 1.4 °C 0.1 °C 996.2 hPa West 4.8 km/h 4.8 km/h 91% 0 mm 0 W/m2
18:22 1.3 °C 0 °C 996.2 hPa WSW 3.2 km/h 4.8 km/h 91% 0 mm 0 W/m2
18:28 1.3 °C -0.1 °C 996.2 hPa WSW 3.2 km/h 4.8 km/h 91% 0 mm 0 W/m2
18:34 1.3 °C 0 °C 996.2 hPa West 4.8 km/h 9.7 km/h 91% 0 mm 0 W/m2
18:39 1.4 °C 0.1 °C 996.5 hPa West 3.2 km/h 4.8 km/h 91% 0 mm 0 W/m2
18:52 1.5 °C 0.3 °C 996.5 hPa WSW 3.2 km/h 4.8 km/h 92% 0 mm 0 W/m2
18:58 1.6 °C 0.2 °C 996.5 hPa WNW 3.2 km/h 4.8 km/h 91% 0 mm 0 W/m2
19:04 1.6 °C 0.3 °C 996.8 hPa WNW 4.8 km/h 8 km/h 91% 0 mm 0 W/m2
19:06 1.7 °C 0.3 °C 996.8 hPa West 4.8 km/h 8 km/h 91% 0 mm 0 W/m2
19:15 1.8 °C 0.5 °C 996.8 hPa West 4.8 km/h 6.4 km/h 91% 0 mm 0 W/m2
19:22 1.9 °C 0.6 °C 996.8 hPa WNW 6.4 km/h 6.4 km/h 91% 0 mm 0 W/m2
19:28 1.9 °C 0.5 °C 996.8 hPa West 6.4 km/h 9.7 km/h 90% 0 mm 0 W/m2
19:34 2 °C 0.6 °C 997.2 hPa NW 8 km/h 8 km/h 90% 0 mm 0 W/m2
19:40 2.1 °C 0.4 °C 997.2 hPa West 8 km/h 8 km/h 89% 0 mm 0 W/m2
19:42 2.1 °C 0.4 °C 997.2 hPa West 6.4 km/h 8 km/h 89% 0 mm 0 W/m2
19:48 2.1 °C 0.4 °C 997.2 hPa West 8 km/h 12.9 km/h 89% 0 mm 0 W/m2
19:53 2 °C 0.4 °C 997.2 hPa West 8 km/h 9.7 km/h 89% 0 mm 0 W/m2
20:00 1.9 °C 0.3 °C 997.5 hPa WNW 8 km/h 9.7 km/h 89% 0 mm 0 W/m2
20:02 1.9 °C 0.3 °C 997.5 hPa West 8 km/h 9.7 km/h 89% 0 mm 0 W/m2
20:08 1.9 °C 0.3 °C 997.5 hPa West 6.4 km/h 9.7 km/h 89% 0 mm 0 W/m2
20:14 1.9 °C 0.3 °C 997.5 hPa West 6.4 km/h 11.3 km/h 89% 0 mm 0 W/m2
20:20 1.8 °C 0.2 °C 997.9 hPa WNW 6.4 km/h 6.4 km/h 89% 0 mm 0 W/m2
20:26 1.8 °C 0.2 °C 997.9 hPa West 8 km/h 9.7 km/h 89% 0 mm 0 W/m2
20:32 1.7 °C 0.1 °C 997.9 hPa West 8 km/h 8 km/h 89% 0 mm 0 W/m2
20:38 1.7 °C 0.2 °C 997.9 hPa WNW 6.4 km/h 9.7 km/h 90% 0 mm 0 W/m2
20:43 1.6 °C 0.1 °C 997.9 hPa West 4.8 km/h 8 km/h 90% 1.02 mm 0 W/m2
20:50 1.4 °C 0 °C 997.9 hPa WNW 4.8 km/h 6.4 km/h 90% 1.02 mm 0 W/m2
20:55 1.3 °C -0.1 °C 997.9 hPa WSW 4.8 km/h 8 km/h 90% 1.02 mm 0 W/m2
21:02 1.3 °C -0.1 °C 997.9 hPa West 6.4 km/h 8 km/h 91% 0 mm 0 W/m2
21:08 1.3 °C -0.1 °C 998.2 hPa West 6.4 km/h 8 km/h 91% 0 mm 0 W/m2
21:14 1.3 °C -0.1 °C 998.2 hPa West 6.4 km/h 8 km/h 91% 0 mm 0 W/m2
21:22 1.3 °C 0 °C 998.2 hPa WSW 4.8 km/h 14.5 km/h 91% 0 mm 0 W/m2
21:28 1.4 °C -0.1 °C 998.2 hPa West 6.4 km/h 14.5 km/h 90% 0 mm 0 W/m2
21:34 1.4 °C 0 °C 998.2 hPa WSW 4.8 km/h 8 km/h 90% 0 mm 0 W/m2
21:40 1.4 °C -0.2 °C 998.2 hPa West 4.8 km/h 8 km/h 89% 0 mm 0 W/m2
21:45 1.5 °C -0.1 °C 998.5 hPa SW 4.8 km/h 8 km/h 89% 0 mm 0 W/m2
21:52 1.4 °C -0.2 °C 998.2 hPa WSW 4.8 km/h 11.3 km/h 89% 0 mm 0 W/m2
21:58 1.5 °C -0.1 °C 998.2 hPa West 4.8 km/h 11.3 km/h 89% 0 mm 0 W/m2
22:03 1.5 °C -0.1 °C 998.2 hPa WSW 6.4 km/h 6.4 km/h 89% 0 mm 0 W/m2
22:10 1.6 °C -0.2 °C 998.2 hPa West 6.4 km/h 6.4 km/h 88% 0 mm 0 W/m2
22:18 1.6 °C -0.2 °C 998.2 hPa SW 6.4 km/h 14.5 km/h 88% 0 mm 0 W/m2
22:24 1.7 °C -0.1 °C 998.2 hPa West 6.4 km/h 12.9 km/h 88% 0 mm 0 W/m2
22:31 1.7 °C -0.1 °C 998.2 hPa West 6.4 km/h 6.4 km/h 88% 0 mm 0 W/m2
22:38 1.8 °C -0.1 °C 998.2 hPa West 6.4 km/h 8 km/h 87% 0 mm 0 W/m2
22:43 1.9 °C -0.2 °C 998.5 hPa West 8 km/h 11.3 km/h 86% 0 mm 0 W/m2
22:50 1.9 °C -0.2 °C 998.5 hPa West 8 km/h 8 km/h 86% 0 mm 0 W/m2
22:56 2 °C -0.3 °C 998.5 hPa WSW 6.4 km/h 8 km/h 85% 0 mm 0 W/m2
23:02 2.1 °C -0.4 °C 998.5 hPa West 8 km/h 17.7 km/h 84% 0 mm 0 W/m2
23:08 2.1 °C -0.4 °C 998.5 hPa West 9.7 km/h 17.7 km/h 84% 0 mm 0 W/m2
23:15 2.1 °C -0.4 °C 998.5 hPa West 6.4 km/h 16.1 km/h 84% 0 mm 0 W/m2
23:22 2.1 °C -0.5 °C 998.5 hPa WNW 9.7 km/h 12.9 km/h 83% 0 mm 0 W/m2
23:28 2.1 °C -0.5 °C 998.5 hPa West 9.7 km/h 16.1 km/h 83% 0 mm 0 W/m2
23:34 2.1 °C -0.6 °C 998.5 hPa West 6.4 km/h 9.7 km/h 83% 0 mm 0 W/m2
23:40 2.2 °C -0.6 °C 998.5 hPa WNW 6.4 km/h 6.4 km/h 82% 0 mm 0 W/m2
23:45 2.2 °C -0.6 °C 998.9 hPa West 6.4 km/h 11.3 km/h 82% 0 mm 0 W/m2
23:52 2.3 °C -0.7 °C 998.5 hPa NW 8 km/h 8 km/h 81% 0 mm 0 W/m2
Country Meadow, Clay, NY, USA
Compliments of Weather Underground - 2 mb